Milagres, Brazil
Current Conditions -  °F | °C
As of 10:00 AM on Saturday 25 Oct 2014 (Local Time) from SBSV Reporting Station
Scattered Clouds Scattered Clouds  
Wind Chill: 81°   Ceiling: Unl
Heat Index: 83°   Visibility: 6mi
Dew Point: 68°   Wind: 8mph
Humidity: 65%   Direction: 130°SE
Pressure: 29.97"   Gusts: NA
Location:  12.87°S, 39.86°W
Report Text: SBSV 251300Z 13007KT 9999 SCT017 FEW020TCU SCT080 27/20 Q1015
Loading
Personal Weather Stations






























Interactive Weather Map
Tropical Storm Tracking
New forecast layout! Learn more

10-Day Weather Forecast

Advertisements
Track Severe Weather on mobile